Asian Moon — C4EQ2 — position and weather

sailwx.info

Track history (hours):
 
Tides and Currents Weather Stations Pressure Air Temp Water Temp Dewpoint Dewpoint Depression Visibility Wind Speed Wind Dir Waves Ship Positions

Asian Moon

Last reported at 2017-Nov-17 23:00 UTC. Time now 2017-Nov-17 23:01 UTC.
Position N 37°37' W 028°26'.

Length 148 m; draft 7.5 m.

Type: Cargo ship. MMSI: 209570000.

Date/timePositionNaut miles runAvg speedWind from/ knotsBaromVisibWave heightAir tempDewpointWater temp
2017-Nov-17 23:00N 37°37' W 028°26'713.4
2017-Nov-17 22:31N 37°35' W 028°34'713.5
2017-Nov-17 22:00N 37°34' W 028°42'713.6
2017-Nov-17 21:30N 37°32' W 028°51'714.0
2017-Nov-17 21:00N 37°30' W 028°59'714.1
2017-Nov-17 20:31N 37°29' W 029°08'714.0
2017-Nov-17 20:00N 37°27' W 029°16'714.6
2017-Nov-17 19:30N 37°26' W 029°25'714.4
2017-Nov-17 19:01N 37°24' W 029°34'714.2
2017-Nov-17 18:31N 37°22' W 029°43'1814.4
2017-Nov-17 17:16N 37°18' W 030°05'  
2017-Nov-10 12:08N 27°36' W 078°54'8315.8
2017-Nov-10 06:54N 26°18' W 079°28'718.1
2017-Nov-10 06:30N 26°11' W 079°28'1217.7
2017-Nov-10 05:49N 25°59' W 079°30'617.9
2017-Nov-10 05:29N 25°54' W 079°31'1218.3
2017-Nov-10 04:48N 25°41' W 079°33'618.3
2017-Nov-10 04:30N 25°36' W 079°33'  
Track history (hours):
 
Tides and Currents Weather Stations Pressure Air Temp Water Temp Dewpoint Dewpoint Depression Visibility Wind Speed Wind Dir Waves Ship Positions

Asian Moon

Last reported at 2017-Nov-17 23:00 UTC. Time now 2017-Nov-17 23:01 UTC.
Position N 37°37' W 028°26'.

Length 148 m; draft 7.5 m.

Type: Cargo ship. MMSI: 209570000.

Date/timePositionNaut miles runAvg speedWind from/ knotsBaromVisibWave heightAir tempDewpointWater temp
2017-Nov-17 23:00N 37°37' W 028°26'713.4
2017-Nov-17 22:31N 37°35' W 028°34'713.5
2017-Nov-17 22:00N 37°34' W 028°42'713.6
2017-Nov-17 21:30N 37°32' W 028°51'714.0
2017-Nov-17 21:00N 37°30' W 028°59'714.1
2017-Nov-17 20:31N 37°29' W 029°08'714.0
2017-Nov-17 20:00N 37°27' W 029°16'714.6
2017-Nov-17 19:30N 37°26' W 029°25'714.4
2017-Nov-17 19:01N 37°24' W 029°34'714.2
2017-Nov-17 18:31N 37°22' W 029°43'1814.4
2017-Nov-17 17:16N 37°18' W 030°05'  
2017-Nov-10 12:08N 27°36' W 078°54'8315.8
2017-Nov-10 06:54N 26°18' W 079°28'718.1
2017-Nov-10 06:30N 26°11' W 079°28'1217.7
2017-Nov-10 05:49N 25°59' W 079°30'617.9
2017-Nov-10 05:29N 25°54' W 079°31'1218.3
2017-Nov-10 04:48N 25°41' W 079°33'618.3
2017-Nov-10 04:30N 25°36' W 079°33'  

Dump ship's entire track history